Time;durP1;ratioP1;P1;durP2;ratioP2;P2;SDS_P1;SDS_P2;PMS_P1;PMS_P2;Temp;Humidity;BMP_temperature;BMP_pressure;BME280_temperature;BME280_humidity;BME280_pressure;Samples;Min_cycle;Max_cycle;Signal;HPM_P1;HPM_P2
2023/03/09 00:00:32;;;;;;;6.25;5.38;;;;;;;;;;5140207;27;20199;-62
2023/03/09 00:03:02;;;;;;;5.93;5.32;;;;;;;;;;5140852;27;20209;-63
2023/03/09 00:05:29;;;;;;;5.57;4.72;;;;;;;;;;5141116;27;20233;-63
2023/03/09 00:07:57;;;;;;;5.90;5.00;;;;;;;;;;5140852;27;20209;-62
2023/03/09 00:10:25;;;;;;;5.72;5.13;;;;;;;;;;5140412;27;20317;-62
2023/03/09 00:12:52;;;;;;;5.22;4.72;;;;;;;;;;5140195;27;20209;-62
2023/03/09 00:15:20;;;;;;;5.18;4.72;;;;;;;;;;5140393;27;20206;-62
2023/03/09 00:17:48;;;;;;;5.05;4.47;;;;;;;;;;5140351;27;20202;-63
2023/03/09 00:20:18;;;;;;;5.40;4.90;;;;;;;;;;5140310;27;20209;-62
2023/03/09 00:22:49;;;;;;;4.72;4.32;;;;;;;;;;5140064;27;20268;-63
2023/03/09 00:25:16;;;;;;;4.75;4.28;;;;;;;;;;5140180;27;20260;-63
2023/03/09 00:27:44;;;;;;;5.00;4.50;;;;;;;;;;5140166;27;20793;-67
2023/03/09 00:30:13;;;;;;;4.20;3.80;;;;;;;;;;5140147;27;20222;-63
2023/03/09 00:32:40;;;;;;;5.00;4.50;;;;;;;;;;5129499;27;20284;-63
2023/03/09 00:35:09;;;;;;;4.63;4.13;;;;;;;;;;5119224;28;20458;-62
2023/03/09 00:37:39;;;;;;;4.35;3.92;;;;;;;;;;5119255;28;20491;-62
2023/03/09 00:40:09;;;;;;;4.80;4.40;;;;;;;;;;5118949;28;20518;-62
2023/03/09 00:42:37;;;;;;;4.38;3.97;;;;;;;;;;5118992;28;20202;-62
2023/03/09 00:45:06;;;;;;;3.90;3.60;;;;;;;;;;5119519;28;20226;-62
2023/03/09 00:47:33;;;;;;;3.80;3.50;;;;;;;;;;5119395;28;20241;-62
2023/03/09 00:50:01;;;;;;;4.03;3.63;;;;;;;;;;5119005;28;20202;-63
2023/03/09 00:52:29;;;;;;;3.72;3.42;;;;;;;;;;5118746;28;20210;-62
2023/03/09 00:54:58;;;;;;;4.40;4.00;;;;;;;;;;5118911;28;20272;-62
2023/03/09 00:57:26;;;;;;;4.10;3.70;;;;;;;;;;5118932;28;20249;-62
2023/03/09 00:59:54;;;;;;;4.35;3.95;;;;;;;;;;5119205;28;20264;-62
2023/03/09 01:02:21;;;;;;;3.63;3.33;;;;;;;;;;5118824;28;20206;-63
2023/03/09 01:04:50;;;;;;;3.40;3.10;;;;;;;;;;5119280;28;20795;-62
2023/03/09 01:07:18;;;;;;;3.40;3.10;;;;;;;;;;5119098;28;20264;-62
2023/03/09 01:09:46;;;;;;;3.20;2.90;;;;;;;;;;5118580;28;20207;-63
2023/03/09 01:12:15;;;;;;;3.17;2.88;;;;;;;;;;5118415;28;20233;-62
2023/03/09 01:14:42;;;;;;;3.30;3.00;;;;;;;;;;5118624;28;20214;-62
2023/03/09 01:17:10;;;;;;;3.17;2.97;;;;;;;;;;5118745;28;20203;-62
2023/03/09 01:19:38;;;;;;;3.05;2.75;;;;;;;;;;5118608;28;20203;-62
2023/03/09 01:22:06;;;;;;;3.05;2.85;;;;;;;;;;5118893;28;20203;-63
2023/03/09 01:24:34;;;;;;;3.05;2.83;;;;;;;;;;5119141;28;20477;-62
2023/03/09 01:27:01;;;;;;;3.28;2.97;;;;;;;;;;5118737;28;20202;-62
2023/03/09 01:29:30;;;;;;;3.08;2.78;;;;;;;;;;5118526;28;20594;-62
2023/03/09 01:31:58;;;;;;;3.05;2.75;;;;;;;;;;5118259;28;20238;-62
2023/03/09 01:34:26;;;;;;;2.70;2.50;;;;;;;;;;5118526;28;20252;-62
2023/03/09 01:36:54;;;;;;;2.97;2.67;;;;;;;;;;5118957;28;20558;-63
2023/03/09 01:39:22;;;;;;;2.92;2.70;;;;;;;;;;5118270;28;20210;-62
2023/03/09 01:41:50;;;;;;;2.30;2.10;;;;;;;;;;5118381;28;20227;-62
2023/03/09 01:44:17;;;;;;;2.55;2.35;;;;;;;;;;5118124;28;20218;-63
2023/03/09 01:46:52;;;;;;;2.55;2.35;;;;;;;;;;5118630;28;20211;-62
2023/03/09 01:49:26;;;;;;;2.53;2.33;;;;;;;;;;5118465;28;20202;-62
2023/03/09 01:51:56;;;;;;;2.42;2.22;;;;;;;;;;5118549;28;20222;-63
2023/03/09 01:54:27;;;;;;;2.65;2.45;;;;;;;;;;5118546;28;20207;-63
2023/03/09 01:56:57;;;;;;;2.15;2.05;;;;;;;;;;5118345;28;20202;-62
2023/03/09 01:59:27;;;;;;;2.40;2.20;;;;;;;;;;5118466;28;20206;-62
2023/03/09 02:01:56;;;;;;;2.58;2.38;;;;;;;;;;5118745;28;20207;-62
2023/03/09 02:04:26;;;;;;;2.50;2.30;;;;;;;;;;5117742;28;20238;-62
2023/03/09 02:06:54;;;;;;;1.83;1.73;;;;;;;;;;5118393;28;20236;-62
2023/03/09 02:09:25;;;;;;;1.98;1.88;;;;;;;;;;5117575;28;20211;-63
2023/03/09 02:11:52;;;;;;;2.15;1.95;;;;;;;;;;5118714;28;20239;-62
2023/03/09 02:14:21;;;;;;;2.20;2.00;;;;;;;;;;5117877;28;20294;-63
2023/03/09 02:16:49;;;;;;;2.33;2.13;;;;;;;;;;5118009;28;20590;-62
2023/03/09 02:19:24;;;;;;;2.10;2.00;;;;;;;;;;5117681;28;20210;-62
2023/03/09 02:21:53;;;;;;;2.33;2.13;;;;;;;;;;5118239;28;20202;-62
2023/03/09 02:24:25;;;;;;;1.80;1.70;;;;;;;;;;5122020;28;20297;-62
2023/03/09 02:26:55;;;;;;;1.83;1.73;;;;;;;;;;5122375;28;20210;-63
2023/03/09 02:29:25;;;;;;;1.73;1.58;;;;;;;;;;5122109;28;20213;-62
2023/03/09 02:31:52;;;;;;;1.83;1.73;;;;;;;;;;5125804;27;20666;-62
2023/03/09 02:34:20;;;;;;;1.77;1.67;;;;;;;;;;5142917;27;20206;-62
2023/03/09 02:36:48;;;;;;;1.50;1.40;;;;;;;;;;5143128;27;20203;-62
2023/03/09 02:39:18;;;;;;;1.55;1.42;;;;;;;;;;5142858;27;20209;-62
2023/03/09 02:41:45;;;;;;;2.13;1.83;;;;;;;;;;5142819;27;20268;-63
2023/03/09 02:44:13;;;;;;;1.52;1.42;;;;;;;;;;5142408;27;20202;-63
2023/03/09 02:46:43;;;;;;;2.30;1.75;;;;;;;;;;5142679;27;20543;-62
2023/03/09 02:49:10;;;;;;;1.75;1.65;;;;;;;;;;5142508;27;20206;-62
2023/03/09 02:51:38;;;;;;;1.75;1.65;;;;;;;;;;5142320;27;20621;-62
2023/03/09 02:54:06;;;;;;;1.65;1.55;;;;;;;;;;5142168;27;20296;-62
2023/03/09 02:56:34;;;;;;;1.60;1.50;;;;;;;;;;5142481;27;20550;-63
2023/03/09 02:59:02;;;;;;;1.65;1.55;;;;;;;;;;5142516;27;20202;-62
2023/03/09 03:01:30;;;;;;;1.63;1.30;;;;;;;;;;5137853;27;20514;-62
2023/03/09 03:03:59;;;;;;;1.40;1.30;;;;;;;;;;5138273;27;20312;-63
2023/03/09 03:06:26;;;;;;;1.52;1.42;;;;;;;;;;5142123;27;20213;-62
2023/03/09 03:08:54;;;;;;;1.38;1.27;;;;;;;;;;5141587;27;20220;-62
2023/03/09 03:11:21;;;;;;;1.15;1.05;;;;;;;;;;5141682;27;20261;-62
2023/03/09 03:13:50;;;;;;;1.50;1.40;;;;;;;;;;5141852;27;20210;-62
2023/03/09 03:16:17;;;;;;;1.35;1.25;;;;;;;;;;5141705;27;20202;-63
2023/03/09 03:18:45;;;;;;;1.40;1.30;;;;;;;;;;5141693;27;20210;-63
2023/03/09 03:21:14;;;;;;;1.23;1.13;;;;;;;;;;5141883;27;20266;-63
2023/03/09 03:23:42;;;;;;;0.93;0.93;;;;;;;;;;5141647;27;20591;-63
2023/03/09 03:26:10;;;;;;;1.20;1.10;;;;;;;;;;5141730;27;20228;-63
2023/03/09 03:28:38;;;;;;;1.20;1.08;;;;;;;;;;5141561;27;20652;-63
2023/03/09 03:31:06;;;;;;;1.45;1.30;;;;;;;;;;5141480;27;20259;-62
2023/03/09 03:33:34;;;;;;;1.30;1.20;;;;;;;;;;5141004;27;20229;-62
2023/03/09 03:36:01;;;;;;;1.33;1.20;;;;;;;;;;5140877;27;20198;-62
2023/03/09 03:38:30;;;;;;;1.30;1.20;;;;;;;;;;5141664;27;20267;-62
2023/03/09 03:40:59;;;;;;;1.33;1.23;;;;;;;;;;5141333;27;20212;-62
2023/03/09 03:43:26;;;;;;;1.13;1.02;;;;;;;;;;5141828;27;20607;-62
2023/03/09 03:45:54;;;;;;;1.02;0.93;;;;;;;;;;5141077;27;20208;-62
2023/03/09 03:48:21;;;;;;;1.33;1.23;;;;;;;;;;5141106;27;20252;-62
2023/03/09 03:50:49;;;;;;;1.17;1.08;;;;;;;;;;5141072;27;20202;-62
2023/03/09 03:53:17;;;;;;;1.13;1.02;;;;;;;;;;5141282;27;20202;-62
2023/03/09 03:55:47;;;;;;;0.90;0.90;;;;;;;;;;5141220;27;20206;-62
2023/03/09 03:58:14;;;;;;;0.90;0.88;;;;;;;;;;5141363;27;20257;-62
2023/03/09 04:00:42;;;;;;;0.80;0.80;;;;;;;;;;5140640;27;20202;-62
2023/03/09 04:03:10;;;;;;;1.02;0.98;;;;;;;;;;5140679;27;20209;-62
2023/03/09 04:05:37;;;;;;;1.20;1.10;;;;;;;;;;5140732;27;20289;-62
2023/03/09 04:08:05;;;;;;;1.00;0.90;;;;;;;;;;5140609;27;20206;-62
2023/03/09 04:10:33;;;;;;;0.90;0.90;;;;;;;;;;5140619;27;20206;-62
2023/03/09 04:13:02;;;;;;;0.90;0.90;;;;;;;;;;5140542;27;20233;-62
2023/03/09 04:15:30;;;;;;;0.93;0.90;;;;;;;;;;5140367;27;20285;-62
2023/03/09 04:17:58;;;;;;;0.77;0.77;;;;;;;;;;5140796;27;20225;-62
2023/03/09 04:20:25;;;;;;;0.80;0.80;;;;;;;;;;5140584;27;20202;-63
2023/03/09 04:22:53;;;;;;;0.90;0.90;;;;;;;;;;5140747;27;20755;-62
2023/03/09 04:25:21;;;;;;;1.20;1.00;;;;;;;;;;5140148;27;20481;-62
2023/03/09 04:27:48;;;;;;;0.90;0.90;;;;;;;;;;5140188;27;20484;-62
2023/03/09 04:30:20;;;;;;;1.40;0.80;;;;;;;;;;5140108;27;20194;-62
2023/03/09 04:32:48;;;;;;;0.85;0.82;;;;;;;;;;5139729;27;20330;-62
2023/03/09 04:35:16;;;;;;;0.60;0.60;;;;;;;;;;5137485;27;20237;-63
2023/03/09 04:37:44;;;;;;;0.93;0.82;;;;;;;;;;5134639;27;20209;-62
2023/03/09 04:40:13;;;;;;;0.75;0.75;;;;;;;;;;5140439;27;20244;-62
2023/03/09 04:42:41;;;;;;;0.70;0.70;;;;;;;;;;5139623;27;20199;-62
2023/03/09 04:45:09;;;;;;;0.63;0.63;;;;;;;;;;5139871;27;20203;-62
2023/03/09 04:47:38;;;;;;;0.68;0.60;;;;;;;;;;5139851;27;20206;-62
2023/03/09 04:50:06;;;;;;;0.60;0.60;;;;;;;;;;5139811;27;20281;-62
2023/03/09 04:52:34;;;;;;;0.57;0.57;;;;;;;;;;5139568;27;20237;-62
2023/03/09 04:55:01;;;;;;;0.68;0.68;;;;;;;;;;5139677;27;20255;-62
2023/03/09 04:57:29;;;;;;;0.60;0.60;;;;;;;;;;5139747;27;20213;-62
2023/03/09 04:59:57;;;;;;;0.60;0.60;;;;;;;;;;5139396;27;20203;-62
2023/03/09 05:02:25;;;;;;;0.73;0.70;;;;;;;;;;5139588;27;20194;-62
2023/03/09 05:04:54;;;;;;;0.50;0.50;;;;;;;;;;5139346;27;20620;-62
2023/03/09 05:07:22;;;;;;;0.50;0.50;;;;;;;;;;5139366;27;20202;-62
2023/03/09 05:09:49;;;;;;;0.70;0.70;;;;;;;;;;5139401;27;20556;-62
2023/03/09 05:12:16;;;;;;;0.70;0.50;;;;;;;;;;5139092;27;20576;-62
2023/03/09 05:14:44;;;;;;;0.60;0.60;;;;;;;;;;5139115;27;20198;-62
2023/03/09 05:17:12;;;;;;;0.73;0.70;;;;;;;;;;5138830;27;20213;-62
2023/03/09 05:19:39;;;;;;;0.50;0.50;;;;;;;;;;5138799;27;20202;-63
2023/03/09 05:22:08;;;;;;;0.60;0.60;;;;;;;;;;5137984;27;20224;-63
2023/03/09 05:24:35;;;;;;;0.50;0.50;;;;;;;;;;5138270;27;20206;-62
2023/03/09 05:27:03;;;;;;;0.60;0.60;;;;;;;;;;5137924;27;20461;-63
2023/03/09 05:29:30;;;;;;;0.50;0.50;;;;;;;;;;5138272;27;20194;-62
2023/03/09 05:31:57;;;;;;;0.60;0.60;;;;;;;;;;5138155;27;20230;-62
2023/03/09 05:34:25;;;;;;;0.52;0.50;;;;;;;;;;5138159;27;20266;-62
2023/03/09 05:36:52;;;;;;;0.60;0.60;;;;;;;;;;5138426;27;20234;-62
2023/03/09 05:39:22;;;;;;;0.50;0.50;;;;;;;;;;5138662;27;20206;-63
2023/03/09 05:41:49;;;;;;;0.50;0.50;;;;;;;;;;5137514;27;20238;-62
2023/03/09 05:44:16;;;;;;;0.52;0.50;;;;;;;;;;5137920;27;20209;-62
2023/03/09 05:46:44;;;;;;;0.40;0.40;;;;;;;;;;5137559;27;20238;-62
2023/03/09 05:49:11;;;;;;;0.43;0.40;;;;;;;;;;5137324;27;20602;-62
2023/03/09 05:51:39;;;;;;;0.70;0.50;;;;;;;;;;5136659;27;20289;-63
2023/03/09 05:54:06;;;;;;;0.50;0.47;;;;;;;;;;5136517;27;20210;-63
2023/03/09 05:56:35;;;;;;;0.50;0.50;;;;;;;;;;5136489;27;20205;-62
2023/03/09 05:59:03;;;;;;;0.50;0.50;;;;;;;;;;5128215;27;20203;-62
2023/03/09 06:01:31;;;;;;;0.50;0.50;;;;;;;;;;5135428;27;20241;-62
2023/03/09 06:03:58;;;;;;;0.60;0.60;;;;;;;;;;5135005;27;20221;-62
2023/03/09 06:06:26;;;;;;;0.50;0.50;;;;;;;;;;5136346;27;20206;-62
2023/03/09 06:08:53;;;;;;;0.40;0.40;;;;;;;;;;5136572;27;20210;-62
2023/03/09 06:11:21;;;;;;;0.40;0.40;;;;;;;;;;5135616;27;20202;-62
2023/03/09 06:13:49;;;;;;;0.45;0.45;;;;;;;;;;5136780;27;20226;-63
2023/03/09 06:16:17;;;;;;;0.40;0.40;;;;;;;;;;5137165;27;20292;-62
2023/03/09 06:18:45;;;;;;;0.70;0.65;;;;;;;;;;5135677;27;20308;-62
2023/03/09 06:21:13;;;;;;;0.40;0.40;;;;;;;;;;5136240;27;20292;-63
2023/03/09 06:23:41;;;;;;;0.60;0.50;;;;;;;;;;5136850;27;20296;-62
2023/03/09 06:26:09;;;;;;;1.05;0.30;;;;;;;;;;5135745;27;20204;-62
2023/03/09 06:28:37;;;;;;;1.02;0.50;;;;;;;;;;5136996;28;20282;-63
2023/03/09 06:31:11;;;;;;;0.38;0.30;;;;;;;;;;5136209;27;20202;-62
2023/03/09 06:33:39;;;;;;;0.60;0.40;;;;;;;;;;5135986;28;20294;-63
2023/03/09 06:36:07;;;;;;;0.40;0.40;;;;;;;;;;5135641;27;20203;-62
2023/03/09 06:38:35;;;;;;;0.32;0.32;;;;;;;;;;5135703;27;20202;-62
2023/03/09 06:41:02;;;;;;;0.40;0.35;;;;;;;;;;5135921;27;20676;-62
2023/03/09 06:43:29;;;;;;;0.40;0.40;;;;;;;;;;5134489;27;20647;-62
2023/03/09 06:45:57;;;;;;;0.50;0.50;;;;;;;;;;5135031;27;20198;-62
2023/03/09 06:48:26;;;;;;;0.30;0.30;;;;;;;;;;5136617;28;20209;-62
2023/03/09 06:50:54;;;;;;;0.40;0.30;;;;;;;;;;5135264;27;20194;-62
2023/03/09 06:53:21;;;;;;;0.82;0.40;;;;;;;;;;5135306;27;20222;-62
2023/03/09 06:55:48;;;;;;;0.70;0.40;;;;;;;;;;5135291;27;20202;-62
2023/03/09 06:58:16;;;;;;;1.00;0.40;;;;;;;;;;5134443;27;20202;-62
2023/03/09 07:00:46;;;;;;;0.47;0.38;;;;;;;;;;5135390;27;20319;-63
2023/03/09 07:03:15;;;;;;;0.50;0.35;;;;;;;;;;5135674;27;20208;-62
2023/03/09 07:05:44;;;;;;;0.80;0.40;;;;;;;;;;5136129;27;20244;-62
2023/03/09 07:08:12;;;;;;;1.08;0.50;;;;;;;;;;5135454;27;20558;-62
2023/03/09 07:10:39;;;;;;;0.40;0.40;;;;;;;;;;5138554;27;20234;-62
2023/03/09 07:13:06;;;;;;;0.52;0.50;;;;;;;;;;5138728;27;20312;-62
2023/03/09 07:15:34;;;;;;;0.55;0.38;;;;;;;;;;5139133;27;20292;-62
2023/03/09 07:18:01;;;;;;;0.40;0.40;;;;;;;;;;5138944;27;20285;-62
2023/03/09 07:20:34;;;;;;;0.68;0.35;;;;;;;;;;5130429;27;20191;-63
2023/03/09 07:23:02;;;;;;;0.50;0.50;;;;;;;;;;5118677;28;20199;-62
2023/03/09 07:25:33;;;;;;;0.40;0.32;;;;;;;;;;5118280;28;20242;-62
2023/03/09 07:28:02;;;;;;;1.10;0.40;;;;;;;;;;5118531;28;20203;-62
2023/03/09 07:30:29;;;;;;;0.30;0.22;;;;;;;;;;5118908;28;20850;-62
2023/03/09 07:32:57;;;;;;;1.17;0.50;;;;;;;;;;5121519;27;20226;-62
2023/03/09 07:35:25;;;;;;;0.40;0.30;;;;;;;;;;5151236;27;20304;-61
2023/03/09 07:37:52;;;;;;;0.80;0.38;;;;;;;;;;5158317;27;20308;-62
2023/03/09 07:40:21;;;;;;;1.20;0.68;;;;;;;;;;5160131;27;20562;-62
2023/03/09 07:42:52;;;;;;;1.08;0.40;;;;;;;;;;5159710;27;20198;-62
2023/03/09 07:45:20;;;;;;;0.40;0.40;;;;;;;;;;5159975;27;20197;-62
2023/03/09 07:47:48;;;;;;;0.40;0.40;;;;;;;;;;5160153;27;20201;-61
2023/03/09 07:50:15;;;;;;;1.00;0.50;;;;;;;;;;5159246;27;20209;-62
2023/03/09 07:52:43;;;;;;;0.70;0.50;;;;;;;;;;5159127;27;20720;-62
2023/03/09 07:55:11;;;;;;;1.02;0.40;;;;;;;;;;5160092;27;20262;-62
2023/03/09 07:57:40;;;;;;;0.50;0.40;;;;;;;;;;5159635;27;20201;-62
2023/03/09 08:00:12;;;;;;;0.80;0.47;;;;;;;;;;5159607;27;20201;-61
2023/03/09 08:02:40;;;;;;;0.45;0.45;;;;;;;;;;5159661;27;20328;-62
2023/03/09 08:05:08;;;;;;;0.60;0.40;;;;;;;;;;5158811;27;20201;-63
2023/03/09 08:07:36;;;;;;;1.70;0.47;;;;;;;;;;5159374;27;20213;-62
2023/03/09 08:10:03;;;;;;;0.70;0.43;;;;;;;;;;5160061;27;20644;-61
2023/03/09 08:12:30;;;;;;;0.70;0.38;;;;;;;;;;5159172;27;20237;-62
2023/03/09 08:14:59;;;;;;;1.48;0.52;;;;;;;;;;5158894;27;20194;-62
2023/03/09 08:17:27;;;;;;;1.00;0.40;;;;;;;;;;5151448;27;20296;-62
2023/03/09 08:19:55;;;;;;;1.27;0.50;;;;;;;;;;5158613;27;20219;-62
2023/03/09 08:22:23;;;;;;;0.50;0.38;;;;;;;;;;5158820;27;20488;-62
2023/03/09 08:24:50;;;;;;;0.50;0.50;;;;;;;;;;5158836;27;20217;-62
2023/03/09 08:27:18;;;;;;;0.47;0.47;;;;;;;;;;5157954;27;20305;-64
2023/03/09 08:29:46;;;;;;;0.50;0.50;;;;;;;;;;5158533;27;20317;-61
2023/03/09 08:32:15;;;;;;;1.13;0.40;;;;;;;;;;5158357;27;20236;-63
2023/03/09 08:34:43;;;;;;;0.55;0.40;;;;;;;;;;5158493;27;20226;-62
2023/03/09 08:37:10;;;;;;;0.52;0.52;;;;;;;;;;5158301;27;20704;-61
2023/03/09 08:39:37;;;;;;;1.52;0.50;;;;;;;;;;5158385;27;20285;-62
2023/03/09 08:42:05;;;;;;;0.95;0.50;;;;;;;;;;5149504;27;20301;-62
2023/03/09 08:44:32;;;;;;;0.73;0.38;;;;;;;;;;5158338;27;20433;-62
2023/03/09 08:47:00;;;;;;;0.70;0.40;;;;;;;;;;5158185;27;20741;-62
2023/03/09 08:49:28;;;;;;;0.50;0.50;;;;;;;;;;5157942;27;20236;-62
2023/03/09 08:51:56;;;;;;;0.57;0.50;;;;;;;;;;5157944;27;20194;-62
2023/03/09 08:54:23;;;;;;;0.60;0.50;;;;;;;;;;5158320;27;20328;-62
2023/03/09 08:56:51;;;;;;;0.70;0.47;;;;;;;;;;5158435;27;20202;-62
2023/03/09 08:59:18;;;;;;;1.60;0.30;;;;;;;;;;5158469;27;20209;-62
2023/03/09 09:01:46;;;;;;;0.57;0.40;;;;;;;;;;5158157;27;20623;-62
2023/03/09 09:04:13;;;;;;;0.50;0.40;;;;;;;;;;5158638;27;20293;-63
2023/03/09 09:06:42;;;;;;;0.30;0.30;;;;;;;;;;5157670;27;20205;-62
2023/03/09 09:09:10;;;;;;;0.55;0.40;;;;;;;;;;5158335;27;20237;-62
2023/03/09 09:11:37;;;;;;;0.75;0.57;;;;;;;;;;5158444;27;20193;-62
2023/03/09 09:14:05;;;;;;;0.98;0.57;;;;;;;;;;5158360;27;20317;-62
2023/03/09 09:16:32;;;;;;;0.45;0.45;;;;;;;;;;5157571;27;20193;-61
2023/03/09 09:19:00;;;;;;;0.60;0.57;;;;;;;;;;5153989;27;20237;-61
2023/03/09 09:21:28;;;;;;;1.10;0.50;;;;;;;;;;5157506;27;20307;-61
2023/03/09 09:23:57;;;;;;;0.30;0.30;;;;;;;;;;5157795;27;20242;-61
2023/03/09 09:26:24;;;;;;;0.57;0.45;;;;;;;;;;5157284;27;20288;-61
2023/03/09 09:28:53;;;;;;;1.15;0.30;;;;;;;;;;5157788;27;20300;-62
2023/03/09 09:31:21;;;;;;;0.40;0.35;;;;;;;;;;5157333;27;20205;-61
2023/03/09 09:33:49;;;;;;;0.85;0.65;;;;;;;;;;5156890;27;20225;-61
2023/03/09 09:36:19;;;;;;;0.50;0.40;;;;;;;;;;5157202;27;20296;-61
2023/03/09 09:38:46;;;;;;;0.60;0.50;;;;;;;;;;5156040;27;20236;-61
2023/03/09 09:41:18;;;;;;;0.77;0.50;;;;;;;;;;5157343;27;20280;-62
2023/03/09 09:43:48;;;;;;;0.73;0.50;;;;;;;;;;5157586;27;20198;-62
2023/03/09 09:46:17;;;;;;;1.83;0.52;;;;;;;;;;5156850;27;20501;-62
2023/03/09 09:48:45;;;;;;;1.90;0.63;;;;;;;;;;5157656;27;20201;-62
2023/03/09 09:51:18;;;;;;;1.08;0.40;;;;;;;;;;5158065;27;20241;-62
2023/03/09 09:53:51;;;;;;;0.50;0.38;;;;;;;;;;5156929;27;20217;-61
2023/03/09 09:56:23;;;;;;;0.47;0.45;;;;;;;;;;5158051;27;20193;-62
2023/03/09 09:58:52;;;;;;;0.63;0.50;;;;;;;;;;5157536;27;20432;-62
2023/03/09 10:01:23;;;;;;;0.38;0.35;;;;;;;;;;5156999;27;20209;-62
2023/03/09 10:03:52;;;;;;;0.60;0.50;;;;;;;;;;5157039;27;20197;-62
2023/03/09 10:06:20;;;;;;;0.95;0.52;;;;;;;;;;5157645;27;20289;-62
2023/03/09 10:08:49;;;;;;;0.60;0.50;;;;;;;;;;5156424;27;20203;-62
2023/03/09 10:11:22;;;;;;;1.02;0.40;;;;;;;;;;5157319;27;20245;-61
2023/03/09 10:13:52;;;;;;;1.45;0.50;;;;;;;;;;5156721;27;20217;-62
2023/03/09 10:16:22;;;;;;;0.40;0.30;;;;;;;;;;5158313;27;20263;-62
2023/03/09 10:18:52;;;;;;;0.50;0.40;;;;;;;;;;5158660;27;20236;-62
2023/03/09 10:21:22;;;;;;;0.80;0.40;;;;;;;;;;5157110;27;20581;-62
2023/03/09 10:23:50;;;;;;;0.40;0.40;;;;;;;;;;5157419;27;20326;-62
2023/03/09 10:26:25;;;;;;;1.38;0.43;;;;;;;;;;5157720;27;20581;-62
2023/03/09 10:28:57;;;;;;;1.50;0.63;;;;;;;;;;5156958;27;20664;-62
2023/03/09 10:31:30;;;;;;;0.68;0.40;;;;;;;;;;5156844;27;20265;-62
2023/03/09 10:34:04;;;;;;;0.75;0.40;;;;;;;;;;5150571;27;20321;-62
2023/03/09 10:36:32;;;;;;;5.28;0.60;;;;;;;;;;5136258;28;20206;-62
2023/03/09 10:39:02;;;;;;;0.40;0.30;;;;;;;;;;5135919;28;20198;-62
2023/03/09 10:41:30;;;;;;;0.65;0.50;;;;;;;;;;5135996;28;20213;-61
2023/03/09 10:44:00;;;;;;;2.10;0.30;;;;;;;;;;5137468;27;20194;-61
2023/03/09 10:46:27;;;;;;;0.95;0.50;;;;;;;;;;5138759;27;20245;-62
2023/03/09 10:49:10;;;;;;;1.65;0.40;;;;;;;;;;5140353;27;20224;-62
2023/03/09 10:51:40;;;;;;;0.40;0.30;;;;;;;;;;5140545;27;20624;-62
2023/03/09 10:54:15;;;;;;;0.30;0.30;;;;;;;;;;5139470;27;20225;-62
2023/03/09 10:56:44;;;;;;;1.33;0.60;;;;;;;;;;5148048;27;20297;-62
2023/03/09 10:59:17;;;;;;;0.50;0.35;;;;;;;;;;5159915;27;20204;-62
2023/03/09 11:01:45;;;;;;;0.50;0.50;;;;;;;;;;5160820;27;20208;-62
2023/03/09 11:04:34;;;;;;;0.45;0.30;;;;;;;;;;5159910;27;20208;-62
2023/03/09 11:07:02;;;;;;;1.20;0.40;;;;;;;;;;5160285;27;20233;-62
2023/03/09 11:09:35;;;;;;;0.70;0.40;;;;;;;;;;5160320;27;20203;-62
2023/03/09 11:12:09;;;;;;;0.43;0.40;;;;;;;;;;5160820;27;20197;-61
2023/03/09 11:14:43;;;;;;;0.80;0.40;;;;;;;;;;5159943;27;20341;-62
2023/03/09 11:17:28;;;;;;;0.30;0.30;;;;;;;;;;5159474;27;20242;-62
2023/03/09 11:20:10;;;;;;;0.40;0.30;;;;;;;;;;5160237;27;20507;-62
2023/03/09 11:22:38;;;;;;;1.25;0.40;;;;;;;;;;5159039;27;20197;-62
2023/03/09 11:25:06;;;;;;;0.60;0.30;;;;;;;;;;5158358;27;20205;-62
2023/03/09 11:27:36;;;;;;;0.52;0.40;;;;;;;;;;5151350;27;20296;-62
2023/03/09 11:30:07;;;;;;;0.30;0.30;;;;;;;;;;5159624;27;20198;-62
2023/03/09 11:32:35;;;;;;;0.52;0.40;;;;;;;;;;5159453;27;20714;-62
2023/03/09 11:35:03;;;;;;;0.75;0.35;;;;;;;;;;5158518;27;20320;-62
2023/03/09 11:37:34;;;;;;;0.38;0.30;;;;;;;;;;5158410;27;20197;-62
2023/03/09 11:40:05;;;;;;;0.47;0.40;;;;;;;;;;5158055;27;20204;-62
2023/03/09 11:42:36;;;;;;;0.35;0.30;;;;;;;;;;5158283;27;20201;-62
2023/03/09 11:45:05;;;;;;;0.68;0.22;;;;;;;;;;5158766;27;20584;-62
2023/03/09 11:47:35;;;;;;;0.30;0.30;;;;;;;;;;5158830;27;20248;-62
2023/03/09 11:50:05;;;;;;;0.40;0.40;;;;;;;;;;5158003;27;20297;-61
2023/03/09 11:52:35;;;;;;;0.55;0.30;;;;;;;;;;5158666;27;20248;-62
2023/03/09 11:55:06;;;;;;;0.77;0.40;;;;;;;;;;5157278;27;20225;-62
2023/03/09 11:57:35;;;;;;;0.38;0.30;;;;;;;;;;5157463;27;20204;-62
2023/03/09 12:00:06;;;;;;;0.60;0.57;;;;;;;;;;5158286;27;20770;-62
2023/03/09 12:02:36;;;;;;;0.40;0.30;;;;;;;;;;5157556;27;20753;-62
2023/03/09 12:05:04;;;;;;;0.30;0.20;;;;;;;;;;5158091;27;20254;-63
2023/03/09 12:07:33;;;;;;;0.40;0.30;;;;;;;;;;5157551;27;20296;-62
2023/03/09 12:10:04;;;;;;;0.45;0.30;;;;;;;;;;5157770;27;20201;-62
2023/03/09 12:12:36;;;;;;;0.40;0.30;;;;;;;;;;5157384;27;20201;-62
2023/03/09 12:15:07;;;;;;;0.65;0.30;;;;;;;;;;5158149;27;20225;-62
2023/03/09 12:17:38;;;;;;;0.50;0.40;;;;;;;;;;5158553;27;20217;-62
2023/03/09 12:20:06;;;;;;;0.38;0.30;;;;;;;;;;5158707;27;20197;-62
2023/03/09 12:22:35;;;;;;;0.50;0.40;;;;;;;;;;5158400;27;20206;-62
2023/03/09 12:25:03;;;;;;;0.50;0.35;;;;;;;;;;5157932;27;20833;-62
2023/03/09 12:27:31;;;;;;;0.38;0.30;;;;;;;;;;5158524;27;20300;-63
2023/03/09 12:30:09;;;;;;;0.35;0.28;;;;;;;;;;5158645;27;20289;-62
2023/03/09 12:32:40;;;;;;;0.32;0.32;;;;;;;;;;5157342;27;20312;-63
2023/03/09 12:35:12;;;;;;;0.40;0.38;;;;;;;;;;5156993;27;20817;-62
2023/03/09 12:37:53;;;;;;;0.30;0.30;;;;;;;;;;5156984;27;20208;-62
2023/03/09 12:40:24;;;;;;;0.82;0.40;;;;;;;;;;5158379;27;20201;-62
2023/03/09 12:42:53;;;;;;;1.48;0.43;;;;;;;;;;5156478;27;20201;-62
2023/03/09 12:45:29;;;;;;;0.30;0.30;;;;;;;;;;5156737;27;20221;-62
2023/03/09 12:47:59;;;;;;;0.50;0.43;;;;;;;;;;5156686;27;20197;-62
2023/03/09 12:50:29;;;;;;;0.30;0.30;;;;;;;;;;5157851;27;20201;-62
2023/03/09 12:53:03;;;;;;;0.30;0.30;;;;;;;;;;5157413;27;20232;-61
2023/03/09 12:55:45;;;;;;;0.30;0.30;;;;;;;;;;5157024;27;20486;-62
2023/03/09 12:58:31;;;;;;;0.40;0.20;;;;;;;;;;5157451;27;20202;-62
2023/03/09 13:01:00;;;;;;;0.28;0.20;;;;;;;;;;5157089;27;20288;-62
2023/03/09 13:03:31;;;;;;;0.57;0.40;;;;;;;;;;5156953;27;20631;-62
2023/03/09 13:05:59;;;;;;;0.30;0.30;;;;;;;;;;5156996;27;20193;-62
2023/03/09 13:08:28;;;;;;;1.40;0.35;;;;;;;;;;5156709;27;20281;-62
2023/03/09 13:11:13;;;;;;;1.00;0.30;;;;;;;;;;5156579;27;20583;-62
2023/03/09 13:13:44;;;;;;;0.30;0.30;;;;;;;;;;5155571;27;20232;-62
2023/03/09 13:16:38;;;;;;;0.50;0.30;;;;;;;;;;5155567;27;20225;-62
2023/03/09 13:19:24;;;;;;;0.30;0.30;;;;;;;;;;5095371;27;20262;-62
2023/03/09 13:22:09;;;;;;;0.40;0.40;;;;;;;;;;5156378;27;20493;-62
2023/03/09 13:24:38;;;;;;;0.73;0.32;;;;;;;;;;5155667;27;20190;-62
2023/03/09 13:27:07;;;;;;;0.40;0.40;;;;;;;;;;5155579;27;20201;-62
2023/03/09 13:29:35;;;;;;;0.40;0.30;;;;;;;;;;5156234;27;20265;-62
2023/03/09 13:32:03;;;;;;;0.32;0.32;;;;;;;;;;5155717;27;20254;-62
2023/03/09 13:34:34;;;;;;;0.70;0.30;;;;;;;;;;5156333;27;20325;-61
2023/03/09 13:37:04;;;;;;;0.40;0.40;;;;;;;;;;5156585;27;20210;-62
2023/03/09 13:39:32;;;;;;;0.73;0.40;;;;;;;;;;5155585;27;20293;-62
2023/03/09 13:42:02;;;;;;;0.30;0.30;;;;;;;;;;5155926;27;20193;-62
2023/03/09 13:44:29;;;;;;;0.40;0.40;;;;;;;;;;5155572;27;20292;-62
2023/03/09 13:46:58;;;;;;;0.32;0.30;;;;;;;;;;5156112;27;20281;-62
2023/03/09 13:49:26;;;;;;;0.30;0.30;;;;;;;;;;5156751;27;20201;-62
2023/03/09 13:51:56;;;;;;;0.30;0.30;;;;;;;;;;5156149;27;20591;-62
2023/03/09 13:54:27;;;;;;;0.63;0.20;;;;;;;;;;5154935;27;20225;-62
2023/03/09 13:57:15;;;;;;;0.40;0.40;;;;;;;;;;5154908;27;20202;-62
2023/03/09 13:59:47;;;;;;;0.30;0.30;;;;;;;;;;5148497;27;20201;-62
2023/03/09 14:02:14;;;;;;;0.30;0.30;;;;;;;;;;5156688;27;20243;-62
2023/03/09 14:04:45;;;;;;;0.30;0.30;;;;;;;;;;5156643;27;20203;-62
2023/03/09 14:07:15;;;;;;;0.57;0.30;;;;;;;;;;5156700;27;20405;-62
2023/03/09 14:09:44;;;;;;;0.32;0.30;;;;;;;;;;5156191;27;20296;-62
2023/03/09 14:12:23;;;;;;;0.28;0.28;;;;;;;;;;5155667;27;20638;-62
2023/03/09 14:14:51;;;;;;;0.40;0.40;;;;;;;;;;5157093;27;20491;-62
2023/03/09 14:17:19;;;;;;;0.75;0.50;;;;;;;;;;5156146;27;20589;-62
2023/03/09 14:19:51;;;;;;;0.50;0.40;;;;;;;;;;5156717;27;20225;-62
2023/03/09 14:22:19;;;;;;;0.30;0.30;;;;;;;;;;5159068;27;20207;-62
2023/03/09 14:24:48;;;;;;;0.63;0.50;;;;;;;;;;5160082;27;20754;-62
2023/03/09 14:27:23;;;;;;;0.40;0.40;;;;;;;;;;5159160;27;20585;-62
2023/03/09 14:29:50;;;;;;;0.50;0.50;;;;;;;;;;5159381;27;20197;-62
2023/03/09 14:32:19;;;;;;;0.38;0.38;;;;;;;;;;5159606;27;20709;-62
2023/03/09 14:34:46;;;;;;;1.02;0.50;;;;;;;;;;5159620;27;20227;-61
2023/03/09 14:37:18;;;;;;;0.40;0.40;;;;;;;;;;5160400;27;20221;-62
2023/03/09 14:39:46;;;;;;;0.30;0.30;;;;;;;;;;5160455;27;20197;-63
2023/03/09 14:42:19;;;;;;;0.40;0.40;;;;;;;;;;5159022;27;20288;-62
2023/03/09 14:44:47;;;;;;;0.47;0.40;;;;;;;;;;5146807;27;20258;-62
2023/03/09 14:47:16;;;;;;;0.40;0.40;;;;;;;;;;5139192;27;20198;-62
2023/03/09 14:49:44;;;;;;;0.95;0.30;;;;;;;;;;5138486;27;20206;-62
2023/03/09 14:52:12;;;;;;;0.47;0.47;;;;;;;;;;5139337;27;20786;-62
2023/03/09 14:54:40;;;;;;;0.60;0.40;;;;;;;;;;5138973;27;20213;-62